Disclaimer

Please do not use the information listed here in-flight or in-navigation, as they are not provided to us by the airports but are provided by volunteers, so they might be outdated.

Search


Regions


Airport information page

Radio informations:
Tower (TWR) - 118.6 MHz
Ground (GND) - 251.25 MHz
MENDERES APP - 121.6 MHz

Airport informations:
Latitude: 37° 47' 08.04" N
Longitude: 029° 42' 04.67" E
Elevation: 2795 feet - 852 meters
Operating hours: Remarks
Operating agency: Military-civil joint use airport
Timezone: UTC+2(+3DT) - Dates notified by NOTAM
Fuel: JP-8, SemiKeroscene MIL Spec T-83133, without icing inhibitor

Runway information:
06/24 - 9842 x 148 feet< - >3000 x 45 meters

Recent METARs:
LTAY 211050Z VRB07KT 9999 SCT035 BKN100 19/04 Q1015
LTAY 211150Z 22012KT 9999 SCT035 BKN100 17/05 Q1015
LTAY 211150Z 22012KT 9999 SCT035 BKN100 17/05 Q1015

Airport on the map: